sensor_id;sensor_type;location;lat;lon;timestamp;P1;durP1;ratioP1;P2;durP2;ratioP2
14169;SDS011;7164;50.524;8.676;2022-08-04T00:00:27;3.40;;;1.83;;
14169;SDS011;7164;50.524;8.676;2022-08-04T00:11:01;3.13;;;2.00;;
14169;SDS011;7164;50.524;8.676;2022-08-04T00:13:28;3.72;;;1.90;;
14169;SDS011;7164;50.524;8.676;2022-08-04T00:16:02;2.97;;;1.77;;
14169;SDS011;7164;50.524;8.676;2022-08-04T00:18:33;5.75;;;1.88;;
14169;SDS011;7164;50.524;8.676;2022-08-04T00:21:09;3.08;;;1.90;;
14169;SDS011;7164;50.524;8.676;2022-08-04T00:23:36;3.40;;;2.67;;
14169;SDS011;7164;50.524;8.676;2022-08-04T00:26:07;3.15;;;2.20;;
14169;SDS011;7164;50.524;8.676;2022-08-04T00:28:34;4.57;;;2.22;;
14169;SDS011;7164;50.524;8.676;2022-08-04T00:31:02;1.77;;;1.67;;
14169;SDS011;7164;50.524;8.676;2022-08-04T00:33:29;7.00;;;1.83;;
14169;SDS011;7164;50.524;8.676;2022-08-04T00:35:56;2.75;;;1.85;;
14169;SDS011;7164;50.524;8.676;2022-08-04T00:38:22;2.30;;;1.88;;
14169;SDS011;7164;50.524;8.676;2022-08-04T00:48:55;3.05;;;2.38;;
14169;SDS011;7164;50.524;8.676;2022-08-04T00:57:30;4.35;;;2.20;;
14169;SDS011;7164;50.524;8.676;2022-08-04T01:00:24;4.15;;;2.58;;
14169;SDS011;7164;50.524;8.676;2022-08-04T01:08:10;2.10;;;1.90;;
14169;SDS011;7164;50.524;8.676;2022-08-04T01:11:02;3.83;;;2.00;;
14169;SDS011;7164;50.524;8.676;2022-08-04T01:16:15;4.97;;;4.25;;
14169;SDS011;7164;50.524;8.676;2022-08-04T01:24:36;3.75;;;2.63;;
14169;SDS011;7164;50.524;8.676;2022-08-04T01:32:31;7.10;;;2.40;;
14169;SDS011;7164;50.524;8.676;2022-08-04T01:35:04;3.42;;;2.20;;
14169;SDS011;7164;50.524;8.676;2022-08-04T01:40:08;2.60;;;2.10;;
14169;SDS011;7164;50.524;8.676;2022-08-04T01:42:38;3.30;;;2.40;;
14169;SDS011;7164;50.524;8.676;2022-08-04T01:45:10;3.80;;;2.22;;
14169;SDS011;7164;50.524;8.676;2022-08-04T01:47:37;4.00;;;2.53;;
14169;SDS011;7164;50.524;8.676;2022-08-04T01:50:10;3.47;;;2.38;;
14169;SDS011;7164;50.524;8.676;2022-08-04T01:52:38;2.58;;;2.15;;
14169;SDS011;7164;50.524;8.676;2022-08-04T01:55:06;3.70;;;2.38;;
14169;SDS011;7164;50.524;8.676;2022-08-04T01:57:34;3.33;;;2.70;;
14169;SDS011;7164;50.524;8.676;2022-08-04T02:00:08;6.07;;;2.53;;
14169;SDS011;7164;50.524;8.676;2022-08-04T02:02:36;3.08;;;2.58;;
14169;SDS011;7164;50.524;8.676;2022-08-04T02:05:02;2.78;;;2.20;;
14169;SDS011;7164;50.524;8.676;2022-08-04T02:16:03;2.85;;;2.40;;
14169;SDS011;7164;50.524;8.676;2022-08-04T02:18:39;4.75;;;2.63;;
14169;SDS011;7164;50.524;8.676;2022-08-04T02:21:20;3.08;;;2.42;;
14169;SDS011;7164;50.524;8.676;2022-08-04T02:23:51;3.25;;;2.15;;
14169;SDS011;7164;50.524;8.676;2022-08-04T02:28:52;3.30;;;2.30;;
14169;SDS011;7164;50.524;8.676;2022-08-04T02:31:38;2.78;;;2.42;;
14169;SDS011;7164;50.524;8.676;2022-08-04T02:36:43;2.85;;;2.33;;
14169;SDS011;7164;50.524;8.676;2022-08-04T02:39:12;4.70;;;2.83;;
14169;SDS011;7164;50.524;8.676;2022-08-04T02:41:44;3.00;;;2.70;;
14169;SDS011;7164;50.524;8.676;2022-08-04T02:44:12;2.85;;;2.55;;
14169;SDS011;7164;50.524;8.676;2022-08-04T02:46:38;4.85;;;2.72;;
14169;SDS011;7164;50.524;8.676;2022-08-04T02:49:07;4.60;;;2.92;;
14169;SDS011;7164;50.524;8.676;2022-08-04T02:51:35;3.00;;;2.70;;
14169;SDS011;7164;50.524;8.676;2022-08-04T02:54:03;2.90;;;2.50;;
14169;SDS011;7164;50.524;8.676;2022-08-04T02:56:31;4.35;;;2.70;;
14169;SDS011;7164;50.524;8.676;2022-08-04T02:58:58;6.40;;;3.13;;
14169;SDS011;7164;50.524;8.676;2022-08-04T03:06:47;5.28;;;2.97;;
14169;SDS011;7164;50.524;8.676;2022-08-04T03:13:08;3.78;;;2.67;;
14169;SDS011;7164;50.524;8.676;2022-08-04T03:18:33;5.05;;;2.60;;
14169;SDS011;7164;50.524;8.676;2022-08-04T03:21:21;7.47;;;2.85;;
14169;SDS011;7164;50.524;8.676;2022-08-04T03:51:27;7.53;;;4.88;;
14169;SDS011;7164;50.524;8.676;2022-08-04T03:54:41;3.95;;;3.17;;
14169;SDS011;7164;50.524;8.676;2022-08-04T04:05:36;5.25;;;3.05;;
14169;SDS011;7164;50.524;8.676;2022-08-04T04:27:39;6.43;;;3.33;;
14169;SDS011;7164;50.524;8.676;2022-08-04T04:30:32;2.95;;;2.65;;
14169;SDS011;7164;50.524;8.676;2022-08-04T04:36:17;3.55;;;3.25;;
14169;SDS011;7164;50.524;8.676;2022-08-04T04:47:29;4.90;;;2.83;;
14169;SDS011;7164;50.524;8.676;2022-08-04T04:57:47;6.55;;;4.00;;
14169;SDS011;7164;50.524;8.676;2022-08-04T05:00:16;7.85;;;3.50;;
14169;SDS011;7164;50.524;8.676;2022-08-04T05:18:39;7.47;;;3.40;;
14169;SDS011;7164;50.524;8.676;2022-08-04T05:23:59;4.07;;;3.30;;
14169;SDS011;7164;50.524;8.676;2022-08-04T05:28:56;3.70;;;3.10;;
14169;SDS011;7164;50.524;8.676;2022-08-04T05:31:36;7.03;;;3.53;;
14169;SDS011;7164;50.524;8.676;2022-08-04T05:34:14;4.30;;;3.15;;
14169;SDS011;7164;50.524;8.676;2022-08-04T05:36:48;7.40;;;3.28;;
14169;SDS011;7164;50.524;8.676;2022-08-04T05:39:18;4.53;;;3.30;;
14169;SDS011;7164;50.524;8.676;2022-08-04T05:41:56;8.05;;;3.45;;
14169;SDS011;7164;50.524;8.676;2022-08-04T05:44:24;9.15;;;3.40;;
14169;SDS011;7164;50.524;8.676;2022-08-04T05:46:53;5.35;;;3.17;;
14169;SDS011;7164;50.524;8.676;2022-08-04T05:49:21;5.05;;;3.10;;
14169;SDS011;7164;50.524;8.676;2022-08-04T05:51:48;5.82;;;2.90;;
14169;SDS011;7164;50.524;8.676;2022-08-04T05:54:16;6.30;;;3.35;;
14169;SDS011;7164;50.524;8.676;2022-08-04T05:56:42;6.82;;;3.10;;
14169;SDS011;7164;50.524;8.676;2022-08-04T05:59:08;9.93;;;3.65;;
14169;SDS011;7164;50.524;8.676;2022-08-04T06:01:35;5.10;;;3.25;;
14169;SDS011;7164;50.524;8.676;2022-08-04T06:04:03;5.80;;;2.95;;
14169;SDS011;7164;50.524;8.676;2022-08-04T06:06:30;8.18;;;3.50;;
14169;SDS011;7164;50.524;8.676;2022-08-04T06:08:56;6.70;;;3.28;;
14169;SDS011;7164;50.524;8.676;2022-08-04T06:11:22;5.38;;;3.22;;
14169;SDS011;7164;50.524;8.676;2022-08-04T06:13:55;6.97;;;3.05;;
14169;SDS011;7164;50.524;8.676;2022-08-04T06:16:23;3.78;;;3.28;;
14169;SDS011;7164;50.524;8.676;2022-08-04T06:18:52;5.13;;;3.63;;
14169;SDS011;7164;50.524;8.676;2022-08-04T06:21:21;4.90;;;3.60;;
14169;SDS011;7164;50.524;8.676;2022-08-04T06:23:50;6.43;;;3.90;;
14169;SDS011;7164;50.524;8.676;2022-08-04T06:26:18;4.88;;;3.53;;
14169;SDS011;7164;50.524;8.676;2022-08-04T06:28:45;9.20;;;3.65;;
14169;SDS011;7164;50.524;8.676;2022-08-04T06:31:14;7.97;;;3.33;;
14169;SDS011;7164;50.524;8.676;2022-08-04T06:33:56;9.90;;;3.50;;
14169;SDS011;7164;50.524;8.676;2022-08-04T06:36:27;5.80;;;3.45;;
14169;SDS011;7164;50.524;8.676;2022-08-04T06:38:57;4.77;;;3.10;;
14169;SDS011;7164;50.524;8.676;2022-08-04T06:41:24;6.05;;;3.10;;
14169;SDS011;7164;50.524;8.676;2022-08-04T06:43:51;6.65;;;3.42;;
14169;SDS011;7164;50.524;8.676;2022-08-04T06:46:17;4.97;;;3.15;;
14169;SDS011;7164;50.524;8.676;2022-08-04T06:48:44;4.55;;;3.00;;
14169;SDS011;7164;50.524;8.676;2022-08-04T06:51:11;6.38;;;3.65;;
14169;SDS011;7164;50.524;8.676;2022-08-04T06:53:38;8.20;;;4.00;;
14169;SDS011;7164;50.524;8.676;2022-08-04T06:56:04;6.28;;;3.38;;
14169;SDS011;7164;50.524;8.676;2022-08-04T06:58:32;5.32;;;3.45;;
14169;SDS011;7164;50.524;8.676;2022-08-04T07:00:59;5.70;;;3.00;;
14169;SDS011;7164;50.524;8.676;2022-08-04T07:03:26;4.90;;;2.72;;
14169;SDS011;7164;50.524;8.676;2022-08-04T07:05:53;6.93;;;3.38;;
14169;SDS011;7164;50.524;8.676;2022-08-04T07:08:19;8.27;;;3.50;;
14169;SDS011;7164;50.524;8.676;2022-08-04T07:10:46;4.93;;;3.00;;
14169;SDS011;7164;50.524;8.676;2022-08-04T07:13:13;6.65;;;3.10;;
14169;SDS011;7164;50.524;8.676;2022-08-04T07:15:43;5.07;;;2.90;;
14169;SDS011;7164;50.524;8.676;2022-08-04T07:18:10;6.28;;;3.25;;
14169;SDS011;7164;50.524;8.676;2022-08-04T07:20:39;5.88;;;3.05;;
14169;SDS011;7164;50.524;8.676;2022-08-04T07:25:32;4.20;;;2.92;;
14169;SDS011;7164;50.524;8.676;2022-08-04T07:28:00;5.88;;;2.88;;
14169;SDS011;7164;50.524;8.676;2022-08-04T07:30:25;7.53;;;2.90;;
14169;SDS011;7164;50.524;8.676;2022-08-04T07:32:54;6.45;;;2.67;;
14169;SDS011;7164;50.524;8.676;2022-08-04T07:35:20;6.95;;;2.95;;
14169;SDS011;7164;50.524;8.676;2022-08-04T07:37:47;7.53;;;2.97;;
14169;SDS011;7164;50.524;8.676;2022-08-04T07:40:13;6.57;;;3.15;;
14169;SDS011;7164;50.524;8.676;2022-08-04T07:42:38;5.43;;;2.63;;
14169;SDS011;7164;50.524;8.676;2022-08-04T07:45:05;7.43;;;4.15;;
14169;SDS011;7164;50.524;8.676;2022-08-04T07:47:31;4.80;;;4.00;;
14169;SDS011;7164;50.524;8.676;2022-08-04T07:49:58;4.78;;;2.97;;
14169;SDS011;7164;50.524;8.676;2022-08-04T07:52:24;5.90;;;3.25;;
14169;SDS011;7164;50.524;8.676;2022-08-04T07:54:50;8.73;;;2.83;;
14169;SDS011;7164;50.524;8.676;2022-08-04T07:57:17;5.05;;;2.72;;
14169;SDS011;7164;50.524;8.676;2022-08-04T07:59:44;5.20;;;2.95;;
14169;SDS011;7164;50.524;8.676;2022-08-04T08:02:12;6.93;;;2.80;;
14169;SDS011;7164;50.524;8.676;2022-08-04T08:04:40;6.55;;;3.00;;
14169;SDS011;7164;50.524;8.676;2022-08-04T08:07:06;6.88;;;3.17;;
14169;SDS011;7164;50.524;8.676;2022-08-04T08:09:32;10.63;;;3.05;;
14169;SDS011;7164;50.524;8.676;2022-08-04T08:11:58;6.72;;;3.05;;
14169;SDS011;7164;50.524;8.676;2022-08-04T08:14:25;7.28;;;2.80;;
14169;SDS011;7164;50.524;8.676;2022-08-04T08:16:52;5.45;;;2.75;;
14169;SDS011;7164;50.524;8.676;2022-08-04T08:19:17;7.93;;;2.88;;
14169;SDS011;7164;50.524;8.676;2022-08-04T08:21:47;7.43;;;3.63;;
14169;SDS011;7164;50.524;8.676;2022-08-04T08:24:14;6.57;;;2.90;;
14169;SDS011;7164;50.524;8.676;2022-08-04T08:26:40;4.32;;;2.20;;
14169;SDS011;7164;50.524;8.676;2022-08-04T08:29:06;4.25;;;2.47;;
14169;SDS011;7164;50.524;8.676;2022-08-04T08:31:33;3.75;;;2.33;;
14169;SDS011;7164;50.524;8.676;2022-08-04T08:33:59;3.55;;;2.30;;
14169;SDS011;7164;50.524;8.676;2022-08-04T08:52:31;5.50;;;2.63;;
14169;SDS011;7164;50.524;8.676;2022-08-04T08:58:40;3.10;;;2.00;;
14169;SDS011;7164;50.524;8.676;2022-08-04T09:05:06;2.65;;;2.20;;
14169;SDS011;7164;50.524;8.676;2022-08-04T09:10:00;4.30;;;2.10;;
14169;SDS011;7164;50.524;8.676;2022-08-04T09:12:49;5.80;;;2.30;;
14169;SDS011;7164;50.524;8.676;2022-08-04T09:15:18;2.55;;;1.75;;
14169;SDS011;7164;50.524;8.676;2022-08-04T09:17:56;3.28;;;2.25;;
14169;SDS011;7164;50.524;8.676;2022-08-04T09:20:30;4.85;;;2.28;;
14169;SDS011;7164;50.524;8.676;2022-08-04T09:25:50;10.82;;;1.95;;
14169;SDS011;7164;50.524;8.676;2022-08-04T09:28:46;5.07;;;2.20;;
14169;SDS011;7164;50.524;8.676;2022-08-04T09:31:47;4.82;;;2.00;;
14169;SDS011;7164;50.524;8.676;2022-08-04T10:02:28;3.88;;;1.90;;
14169;SDS011;7164;50.524;8.676;2022-08-04T10:04:57;4.15;;;2.45;;
14169;SDS011;7164;50.524;8.676;2022-08-04T10:07:38;2.72;;;2.00;;
14169;SDS011;7164;50.524;8.676;2022-08-04T10:18:42;2.65;;;1.98;;
14169;SDS011;7164;50.524;8.676;2022-08-04T10:24:14;1.83;;;1.70;;
14169;SDS011;7164;50.524;8.676;2022-08-04T10:27:19;4.13;;;1.85;;
14169;SDS011;7164;50.524;8.676;2022-08-04T10:29:56;2.28;;;1.80;;
14169;SDS011;7164;50.524;8.676;2022-08-04T10:32:27;1.85;;;1.70;;
14169;SDS011;7164;50.524;8.676;2022-08-04T10:37:42;4.15;;;2.00;;
14169;SDS011;7164;50.524;8.676;2022-08-04T10:43:10;6.10;;;1.98;;
14169;SDS011;7164;50.524;8.676;2022-08-04T10:48:25;3.13;;;1.77;;
14169;SDS011;7164;50.524;8.676;2022-08-04T10:54:11;5.30;;;1.90;;
14169;SDS011;7164;50.524;8.676;2022-08-04T10:59:40;2.88;;;1.88;;
14169;SDS011;7164;50.524;8.676;2022-08-04T11:02:37;2.00;;;1.80;;
14169;SDS011;7164;50.524;8.676;2022-08-04T11:08:07;2.42;;;1.88;;
14169;SDS011;7164;50.524;8.676;2022-08-04T11:10:39;2.13;;;1.70;;
14169;SDS011;7164;50.524;8.676;2022-08-04T11:16:45;3.83;;;1.77;;
14169;SDS011;7164;50.524;8.676;2022-08-04T11:24:35;2.15;;;1.95;;
14169;SDS011;7164;50.524;8.676;2022-08-04T11:27:08;2.33;;;1.63;;
14169;SDS011;7164;50.524;8.676;2022-08-04T11:30:00;3.45;;;2.15;;
14169;SDS011;7164;50.524;8.676;2022-08-04T11:32:31;4.82;;;1.83;;
14169;SDS011;7164;50.524;8.676;2022-08-04T11:35:26;4.38;;;1.85;;
14169;SDS011;7164;50.524;8.676;2022-08-04T11:38:27;2.28;;;1.98;;
14169;SDS011;7164;50.524;8.676;2022-08-04T11:41:03;1.90;;;1.80;;
14169;SDS011;7164;50.524;8.676;2022-08-04T11:43:35;3.35;;;2.10;;
14169;SDS011;7164;50.524;8.676;2022-08-04T11:46:35;7.43;;;1.88;;
14169;SDS011;7164;50.524;8.676;2022-08-04T11:49:07;2.55;;;2.35;;
14169;SDS011;7164;50.524;8.676;2022-08-04T11:51:40;4.15;;;2.15;;
14169;SDS011;7164;50.524;8.676;2022-08-04T11:54:08;9.45;;;2.47;;
14169;SDS011;7164;50.524;8.676;2022-08-04T11:56:36;4.22;;;2.33;;
14169;SDS011;7164;50.524;8.676;2022-08-04T11:59:02;5.18;;;2.40;;
14169;SDS011;7164;50.524;8.676;2022-08-04T12:01:57;5.30;;;2.30;;
14169;SDS011;7164;50.524;8.676;2022-08-04T12:04:55;3.38;;;2.50;;
14169;SDS011;7164;50.524;8.676;2022-08-04T12:10:22;4.03;;;2.10;;
14169;SDS011;7164;50.524;8.676;2022-08-04T12:13:00;2.72;;;2.08;;
14169;SDS011;7164;50.524;8.676;2022-08-04T12:15:35;2.03;;;1.80;;
14169;SDS011;7164;50.524;8.676;2022-08-04T12:20:34;5.80;;;2.58;;
14169;SDS011;7164;50.524;8.676;2022-08-04T12:23:05;2.00;;;1.90;;
14169;SDS011;7164;50.524;8.676;2022-08-04T12:25:39;3.05;;;2.00;;
14169;SDS011;7164;50.524;8.676;2022-08-04T12:28:11;3.90;;;1.90;;
14169;SDS011;7164;50.524;8.676;2022-08-04T12:30:44;2.45;;;1.75;;
14169;SDS011;7164;50.524;8.676;2022-08-04T12:36:03;2.65;;;2.00;;
14169;SDS011;7164;50.524;8.676;2022-08-04T12:38:43;3.10;;;1.90;;
14169;SDS011;7164;50.524;8.676;2022-08-04T12:41:13;2.55;;;2.05;;
14169;SDS011;7164;50.524;8.676;2022-08-04T12:43:45;1.98;;;1.70;;
14169;SDS011;7164;50.524;8.676;2022-08-04T12:46:16;6.22;;;2.33;;
14169;SDS011;7164;50.524;8.676;2022-08-04T12:48:47;3.95;;;2.13;;
14169;SDS011;7164;50.524;8.676;2022-08-04T12:51:14;5.40;;;1.88;;
14169;SDS011;7164;50.524;8.676;2022-08-04T12:53:41;3.63;;;1.80;;
14169;SDS011;7164;50.524;8.676;2022-08-04T12:56:08;2.83;;;1.60;;
14169;SDS011;7164;50.524;8.676;2022-08-04T12:58:42;3.90;;;1.50;;
14169;SDS011;7164;50.524;8.676;2022-08-04T13:01:18;2.88;;;1.80;;
14169;SDS011;7164;50.524;8.676;2022-08-04T13:03:50;8.43;;;2.05;;
14169;SDS011;7164;50.524;8.676;2022-08-04T13:06:23;2.72;;;1.90;;
14169;SDS011;7164;50.524;8.676;2022-08-04T13:08:51;2.33;;;1.60;;
14169;SDS011;7164;50.524;8.676;2022-08-04T13:11:18;4.22;;;1.90;;
14169;SDS011;7164;50.524;8.676;2022-08-04T13:13:46;3.50;;;1.95;;
14169;SDS011;7164;50.524;8.676;2022-08-04T13:16:18;2.38;;;1.50;;
14169;SDS011;7164;50.524;8.676;2022-08-04T13:18:54;2.75;;;1.65;;
14169;SDS011;7164;50.524;8.676;2022-08-04T13:21:21;2.85;;;1.75;;
14169;SDS011;7164;50.524;8.676;2022-08-04T13:23:49;4.25;;;1.60;;
14169;SDS011;7164;50.524;8.676;2022-08-04T13:26:17;2.10;;;1.65;;
14169;SDS011;7164;50.524;8.676;2022-08-04T13:28:45;3.42;;;1.98;;
14169;SDS011;7164;50.524;8.676;2022-08-04T13:31:14;2.78;;;1.63;;
14169;SDS011;7164;50.524;8.676;2022-08-04T13:33:44;2.42;;;1.55;;
14169;SDS011;7164;50.524;8.676;2022-08-04T13:36:12;1.50;;;1.40;;
14169;SDS011;7164;50.524;8.676;2022-08-04T13:38:50;2.08;;;1.52;;
14169;SDS011;7164;50.524;8.676;2022-08-04T13:41:18;4.30;;;1.65;;
14169;SDS011;7164;50.524;8.676;2022-08-04T13:43:48;1.80;;;1.70;;
14169;SDS011;7164;50.524;8.676;2022-08-04T13:46:19;4.50;;;1.60;;
14169;SDS011;7164;50.524;8.676;2022-08-04T13:48:49;2.58;;;1.50;;
14169;SDS011;7164;50.524;8.676;2022-08-04T13:51:16;3.05;;;1.58;;
14169;SDS011;7164;50.524;8.676;2022-08-04T13:53:44;2.67;;;1.73;;
14169;SDS011;7164;50.524;8.676;2022-08-04T13:56:18;4.57;;;1.98;;
14169;SDS011;7164;50.524;8.676;2022-08-04T13:58:45;2.17;;;1.55;;
14169;SDS011;7164;50.524;8.676;2022-08-04T14:01:17;1.92;;;1.60;;
14169;SDS011;7164;50.524;8.676;2022-08-04T14:11:40;1.92;;;1.40;;
14169;SDS011;7164;50.524;8.676;2022-08-04T14:14:18;1.60;;;1.50;;
14169;SDS011;7164;50.524;8.676;2022-08-04T14:16:57;2.42;;;1.52;;
14169;SDS011;7164;50.524;8.676;2022-08-04T14:19:25;1.70;;;1.60;;
14169;SDS011;7164;50.524;8.676;2022-08-04T14:27:40;1.77;;;1.58;;
14169;SDS011;7164;50.524;8.676;2022-08-04T14:30:07;2.95;;;1.60;;
14169;SDS011;7164;50.524;8.676;2022-08-04T14:32:57;2.33;;;1.67;;
14169;SDS011;7164;50.524;8.676;2022-08-04T14:35:29;3.28;;;1.80;;
14169;SDS011;7164;50.524;8.676;2022-08-04T14:38:03;2.15;;;1.50;;
14169;SDS011;7164;50.524;8.676;2022-08-04T14:40:34;5.78;;;1.88;;
14169;SDS011;7164;50.524;8.676;2022-08-04T14:43:02;3.35;;;2.10;;
14169;SDS011;7164;50.524;8.676;2022-08-04T14:45:33;2.13;;;1.92;;
14169;SDS011;7164;50.524;8.676;2022-08-04T14:48:02;2.95;;;1.73;;
14169;SDS011;7164;50.524;8.676;2022-08-04T14:50:32;1.60;;;1.50;;
14169;SDS011;7164;50.524;8.676;2022-08-04T14:53:03;2.33;;;1.60;;
14169;SDS011;7164;50.524;8.676;2022-08-04T14:55:30;2.80;;;2.08;;
14169;SDS011;7164;50.524;8.676;2022-08-04T14:57:56;2.67;;;1.73;;
14169;SDS011;7164;50.524;8.676;2022-08-04T15:00:25;2.30;;;1.63;;
14169;SDS011;7164;50.524;8.676;2022-08-04T15:02:54;4.90;;;1.75;;
14169;SDS011;7164;50.524;8.676;2022-08-04T15:05:24;2.85;;;1.70;;
14169;SDS011;7164;50.524;8.676;2022-08-04T15:07:50;2.78;;;1.92;;
14169;SDS011;7164;50.524;8.676;2022-08-04T15:10:18;2.22;;;1.90;;
14169;SDS011;7164;50.524;8.676;2022-08-04T15:12:44;1.77;;;1.65;;
14169;SDS011;7164;50.524;8.676;2022-08-04T15:15:11;3.53;;;1.83;;
14169;SDS011;7164;50.524;8.676;2022-08-04T15:20:27;2.63;;;1.90;;
14169;SDS011;7164;50.524;8.676;2022-08-04T15:22:54;3.42;;;1.80;;
14169;SDS011;7164;50.524;8.676;2022-08-04T15:25:20;4.65;;;1.60;;
14169;SDS011;7164;50.524;8.676;2022-08-04T15:27:47;5.60;;;1.70;;
14169;SDS011;7164;50.524;8.676;2022-08-04T15:30:15;2.33;;;2.13;;
14169;SDS011;7164;50.524;8.676;2022-08-04T15:32:45;4.47;;;2.00;;
14169;SDS011;7164;50.524;8.676;2022-08-04T15:35:17;3.25;;;1.90;;
14169;SDS011;7164;50.524;8.676;2022-08-04T15:37:51;2.15;;;2.05;;
14169;SDS011;7164;50.524;8.676;2022-08-04T15:45:58;2.17;;;1.80;;
14169;SDS011;7164;50.524;8.676;2022-08-04T15:48:26;2.92;;;1.70;;
14169;SDS011;7164;50.524;8.676;2022-08-04T15:53:27;4.47;;;2.17;;
14169;SDS011;7164;50.524;8.676;2022-08-04T15:56:50;2.05;;;1.77;;
14169;SDS011;7164;50.524;8.676;2022-08-04T15:59:10;3.35;;;1.90;;
14169;SDS011;7164;50.524;8.676;2022-08-04T16:01:36;4.10;;;1.92;;
14169;SDS011;7164;50.524;8.676;2022-08-04T16:04:18;2.15;;;1.85;;
14169;SDS011;7164;50.524;8.676;2022-08-04T16:06:48;2.33;;;1.55;;
14169;SDS011;7164;50.524;8.676;2022-08-04T16:09:24;8.52;;;1.90;;
14169;SDS011;7164;50.524;8.676;2022-08-04T16:11:51;2.42;;;1.90;;
14169;SDS011;7164;50.524;8.676;2022-08-04T16:14:17;4.10;;;1.80;;
14169;SDS011;7164;50.524;8.676;2022-08-04T16:16:54;4.10;;;2.25;;
14169;SDS011;7164;50.524;8.676;2022-08-04T16:21:59;7.45;;;1.88;;
14169;SDS011;7164;50.524;8.676;2022-08-04T16:27:01;2.20;;;1.95;;
14169;SDS011;7164;50.524;8.676;2022-08-04T16:29:32;4.30;;;1.65;;
14169;SDS011;7164;50.524;8.676;2022-08-04T16:42:56;3.75;;;2.10;;
14169;SDS011;7164;50.524;8.676;2022-08-04T16:48:19;5.63;;;1.70;;
14169;SDS011;7164;50.524;8.676;2022-08-04T16:50:56;1.73;;;1.60;;
14169;SDS011;7164;50.524;8.676;2022-08-04T16:53:25;5.53;;;1.63;;
14169;SDS011;7164;50.524;8.676;2022-08-04T16:55:54;2.97;;;1.50;;
14169;SDS011;7164;50.524;8.676;2022-08-04T16:58:25;5.45;;;1.70;;
14169;SDS011;7164;50.524;8.676;2022-08-04T17:00:52;4.07;;;1.67;;
14169;SDS011;7164;50.524;8.676;2022-08-04T17:03:18;2.33;;;1.58;;
14169;SDS011;7164;50.524;8.676;2022-08-04T17:05:44;3.13;;;1.90;;
14169;SDS011;7164;50.524;8.676;2022-08-04T17:08:10;2.55;;;1.45;;
14169;SDS011;7164;50.524;8.676;2022-08-04T17:10:43;3.13;;;1.50;;
14169;SDS011;7164;50.524;8.676;2022-08-04T17:13:26;1.75;;;1.50;;
14169;SDS011;7164;50.524;8.676;2022-08-04T17:16:00;2.38;;;1.63;;
14169;SDS011;7164;50.524;8.676;2022-08-04T17:18:28;4.25;;;1.67;;
14169;SDS011;7164;50.524;8.676;2022-08-04T17:21:01;3.72;;;1.90;;
14169;SDS011;7164;50.524;8.676;2022-08-04T17:23:39;2.00;;;1.80;;
14169;SDS011;7164;50.524;8.676;2022-08-04T17:26:13;3.13;;;1.90;;
14169;SDS011;7164;50.524;8.676;2022-08-04T17:28:41;2.08;;;1.75;;
14169;SDS011;7164;50.524;8.676;2022-08-04T17:31:09;1.80;;;1.42;;
14169;SDS011;7164;50.524;8.676;2022-08-04T17:33:39;4.28;;;1.50;;
14169;SDS011;7164;50.524;8.676;2022-08-04T17:36:10;5.45;;;1.42;;
14169;SDS011;7164;50.524;8.676;2022-08-04T17:38:38;4.32;;;1.58;;
14169;SDS011;7164;50.524;8.676;2022-08-04T17:41:06;3.03;;;1.73;;
14169;SDS011;7164;50.524;8.676;2022-08-04T17:43:35;3.92;;;1.67;;
14169;SDS011;7164;50.524;8.676;2022-08-04T17:47:04;4.53;;;1.48;;
14169;SDS011;7164;50.524;8.676;2022-08-04T17:49:10;3.83;;;1.83;;
14169;SDS011;7164;50.524;8.676;2022-08-04T17:54:06;1.63;;;1.27;;
14169;SDS011;7164;50.524;8.676;2022-08-04T17:56:47;3.45;;;1.92;;
14169;SDS011;7164;50.524;8.676;2022-08-04T17:59:22;6.30;;;1.33;;
14169;SDS011;7164;50.524;8.676;2022-08-04T18:01:57;1.50;;;1.30;;
14169;SDS011;7164;50.524;8.676;2022-08-04T18:12:03;2.60;;;1.40;;
14169;SDS011;7164;50.524;8.676;2022-08-04T18:14:44;1.73;;;1.30;;
14169;SDS011;7164;50.524;8.676;2022-08-04T18:17:12;1.92;;;1.30;;
14169;SDS011;7164;50.524;8.676;2022-08-04T18:19:49;2.53;;;1.65;;
14169;SDS011;7164;50.524;8.676;2022-08-04T18:22:16;3.42;;;1.30;;
14169;SDS011;7164;50.524;8.676;2022-08-04T18:24:42;2.85;;;1.38;;
14169;SDS011;7164;50.524;8.676;2022-08-04T18:27:07;1.65;;;1.30;;
14169;SDS011;7164;50.524;8.676;2022-08-04T18:29:33;3.33;;;1.67;;
14169;SDS011;7164;50.524;8.676;2022-08-04T18:31:59;2.63;;;1.92;;
14169;SDS011;7164;50.524;8.676;2022-08-04T18:34:25;2.22;;;1.67;;
14169;SDS011;7164;50.524;8.676;2022-08-04T18:36:50;2.13;;;1.63;;
14169;SDS011;7164;50.524;8.676;2022-08-04T18:39:16;4.03;;;1.60;;
14169;SDS011;7164;50.524;8.676;2022-08-04T18:41:43;3.53;;;1.48;;
14169;SDS011;7164;50.524;8.676;2022-08-04T18:44:09;4.80;;;1.92;;
14169;SDS011;7164;50.524;8.676;2022-08-04T18:46:35;1.27;;;1.17;;
14169;SDS011;7164;50.524;8.676;2022-08-04T18:49:00;2.45;;;1.40;;
14169;SDS011;7164;50.524;8.676;2022-08-04T18:51:26;3.85;;;1.90;;
14169;SDS011;7164;50.524;8.676;2022-08-04T18:53:52;1.58;;;1.45;;
14169;SDS011;7164;50.524;8.676;2022-08-04T18:56:18;2.65;;;2.10;;
14169;SDS011;7164;50.524;8.676;2022-08-04T18:58:44;4.55;;;1.80;;
14169;SDS011;7164;50.524;8.676;2022-08-04T19:01:10;1.92;;;1.40;;
14169;SDS011;7164;50.524;8.676;2022-08-04T19:03:37;2.60;;;1.83;;
14169;SDS011;7164;50.524;8.676;2022-08-04T19:06:04;5.35;;;2.25;;
14169;SDS011;7164;50.524;8.676;2022-08-04T19:08:30;5.82;;;1.90;;
14169;SDS011;7164;50.524;8.676;2022-08-04T19:10:58;4.20;;;1.92;;
14169;SDS011;7164;50.524;8.676;2022-08-04T19:13:26;2.40;;;1.55;;
14169;SDS011;7164;50.524;8.676;2022-08-04T19:15:53;6.93;;;1.90;;
14169;SDS011;7164;50.524;8.676;2022-08-04T19:18:19;8.43;;;2.42;;
14169;SDS011;7164;50.524;8.676;2022-08-04T19:20:44;2.97;;;1.80;;
14169;SDS011;7164;50.524;8.676;2022-08-04T19:23:10;5.20;;;1.85;;
14169;SDS011;7164;50.524;8.676;2022-08-04T19:25:36;2.50;;;1.55;;
14169;SDS011;7164;50.524;8.676;2022-08-04T19:28:03;3.10;;;1.77;;
14169;SDS011;7164;50.524;8.676;2022-08-04T19:30:29;2.97;;;1.55;;
14169;SDS011;7164;50.524;8.676;2022-08-04T19:32:55;4.70;;;1.60;;
14169;SDS011;7164;50.524;8.676;2022-08-04T19:35:20;4.45;;;1.92;;
14169;SDS011;7164;50.524;8.676;2022-08-04T19:37:46;3.30;;;1.58;;
14169;SDS011;7164;50.524;8.676;2022-08-04T19:40:12;4.47;;;1.50;;
14169;SDS011;7164;50.524;8.676;2022-08-04T19:42:38;5.65;;;1.98;;
14169;SDS011;7164;50.524;8.676;2022-08-04T19:45:06;4.43;;;1.80;;
14169;SDS011;7164;50.524;8.676;2022-08-04T19:47:33;2.85;;;1.58;;
14169;SDS011;7164;50.524;8.676;2022-08-04T19:49:59;3.95;;;1.70;;
14169;SDS011;7164;50.524;8.676;2022-08-04T19:52:24;3.83;;;1.70;;
14169;SDS011;7164;50.524;8.676;2022-08-04T19:54:50;6.18;;;1.95;;
14169;SDS011;7164;50.524;8.676;2022-08-04T19:57:16;5.53;;;2.08;;
14169;SDS011;7164;50.524;8.676;2022-08-04T19:59:41;3.05;;;2.08;;
14169;SDS011;7164;50.524;8.676;2022-08-04T20:02:07;5.32;;;2.35;;
14169;SDS011;7164;50.524;8.676;2022-08-04T20:04:32;2.65;;;1.70;;
14169;SDS011;7164;50.524;8.676;2022-08-04T20:06:58;4.57;;;2.25;;
14169;SDS011;7164;50.524;8.676;2022-08-04T20:09:24;6.38;;;2.00;;
14169;SDS011;7164;50.524;8.676;2022-08-04T20:11:50;6.22;;;2.42;;
14169;SDS011;7164;50.524;8.676;2022-08-04T20:14:16;6.32;;;2.22;;
14169;SDS011;7164;50.524;8.676;2022-08-04T20:16:41;4.68;;;2.20;;
14169;SDS011;7164;50.524;8.676;2022-08-04T20:19:07;3.13;;;1.98;;
14169;SDS011;7164;50.524;8.676;2022-08-04T20:21:33;5.45;;;2.25;;
14169;SDS011;7164;50.524;8.676;2022-08-04T20:23:59;7.15;;;2.00;;
14169;SDS011;7164;50.524;8.676;2022-08-04T20:26:25;8.25;;;2.45;;
14169;SDS011;7164;50.524;8.676;2022-08-04T20:28:50;7.60;;;2.30;;
14169;SDS011;7164;50.524;8.676;2022-08-04T20:31:16;6.80;;;2.70;;
14169;SDS011;7164;50.524;8.676;2022-08-04T20:33:42;6.07;;;2.60;;
14169;SDS011;7164;50.524;8.676;2022-08-04T20:36:07;8.48;;;2.90;;
14169;SDS011;7164;50.524;8.676;2022-08-04T20:38:33;11.15;;;2.90;;
14169;SDS011;7164;50.524;8.676;2022-08-04T20:40:59;8.75;;;2.40;;
14169;SDS011;7164;50.524;8.676;2022-08-04T20:43:25;7.80;;;2.22;;
14169;SDS011;7164;50.524;8.676;2022-08-04T20:45:51;7.22;;;2.42;;